Time;durP1;ratioP1;P1;durP2;ratioP2;P2;SDS_P1;SDS_P2;PMS_P1;PMS_P2;Temp;Humidity;BMP_temperature;BMP_pressure;BME280_temperature;BME280_humidity;BME280_pressure;Samples;Min_cycle;Max_cycle;Signal;HPM_P1;HPM_P2
2021/03/13 00:00:23;;;;;;;3.47;2.55;;;4.80;81.50;;;;;;5137323;27;20186;-65
2021/03/13 00:02:51;;;;;;;3.92;2.28;;;4.80;92.80;;;;;;5137320;27;20272;-65
2021/03/13 00:05:32;;;;;;;4.75;2.42;;;4.90;98.50;;;;;;5137561;27;20199;-64
2021/03/13 00:07:58;;;;;;;2.50;2.17;;;4.80;99.90;;;;;;5137438;27;20188;-66
2021/03/13 00:10:24;;;;;;;7.53;2.37;;;4.80;99.90;;;;;;5137000;27;20197;-64
2021/03/13 00:12:50;;;;;;;3.20;2.90;;;4.90;99.90;;;;;;5137220;27;20206;-64
2021/03/13 00:15:17;;;;;;;7.05;3.05;;;5.00;99.90;;;;;;5137495;27;20521;-66
2021/03/13 00:17:48;;;;;;;3.65;2.83;;;4.90;99.90;;;;;;5137758;27;20587;-64
2021/03/13 00:20:18;;;;;;;3.10;2.45;;;5.00;99.90;;;;;;5137781;27;20261;-65
2021/03/13 00:22:44;;;;;;;5.82;3.15;;;5.00;99.90;;;;;;5136848;27;20208;-65
2021/03/13 00:25:11;;;;;;;2.70;2.50;;;5.00;99.90;;;;;;5136987;27;20282;-68
2021/03/13 00:27:45;;;;;;;3.70;3.15;;;5.10;99.90;;;;;;5137562;27;20192;-64
2021/03/13 00:30:27;;;;;;;5.13;2.60;;;5.00;99.90;;;;;;5137209;27;20194;-67
2021/03/13 00:33:04;;;;;;;2.33;2.10;;;5.00;99.90;;;;;;5136758;27;20278;-66
2021/03/13 00:35:31;;;;;;;4.97;2.75;;;4.90;99.90;;;;;;5137040;27;20183;-67
2021/03/13 00:37:57;;;;;;;2.25;2.03;;;4.80;99.90;;;;;;5137318;27;20258;-66
2021/03/13 00:40:25;;;;;;;7.40;2.58;;;4.70;99.90;;;;;;5136855;27;20259;-65
2021/03/13 00:42:51;;;;;;;2.65;2.13;;;4.70;99.90;;;;;;5135477;27;20270;-64
2021/03/13 00:45:21;;;;;;;7.57;4.05;;;4.70;99.90;;;;;;5136423;27;20607;-64
2021/03/13 00:47:46;;;;;;;8.60;2.03;;;4.60;99.90;;;;;;5136788;27;20210;-68
2021/03/13 00:50:15;;;;;;;8.33;4.67;;;4.50;99.90;;;;;;5136375;27;20638;-68
2021/03/13 00:52:41;;;;;;;2.90;2.58;;;4.60;99.90;;;;;;5135680;27;20656;-64
2021/03/13 00:55:08;;;;;;;2.65;2.40;;;4.50;99.90;;;;;;5136444;27;20174;-65
2021/03/13 00:57:34;;;;;;;3.20;2.50;;;4.40;99.90;;;;;;5136810;27;20241;-65
2021/03/13 00:59:59;;;;;;;5.97;2.07;;;4.30;99.90;;;;;;5139807;27;20635;-64
2021/03/13 01:02:28;;;;;;;3.30;2.17;;;4.30;99.90;;;;;;5149289;27;20251;-63
2021/03/13 01:04:54;;;;;;;4.00;2.20;;;4.30;99.90;;;;;;5156384;27;20186;-65
2021/03/13 01:07:19;;;;;;;2.07;1.87;;;4.30;99.90;;;;;;5156226;27;20273;-66
2021/03/13 01:09:45;;;;;;;2.40;2.17;;;4.30;99.90;;;;;;5145197;27;20181;-63
2021/03/13 01:12:11;;;;;;;2.30;2.10;;;4.30;99.90;;;;;;5149088;27;20213;-65
2021/03/13 01:14:36;;;;;;;6.00;1.97;;;4.40;99.90;;;;;;5148261;27;20175;-65
2021/03/13 01:17:02;;;;;;;1.70;1.30;;;4.50;99.90;;;;;;5148630;27;20182;-65
2021/03/13 01:19:28;;;;;;;2.00;1.30;;;4.50;99.90;;;;;;5149055;27;20471;-65
2021/03/13 01:21:54;;;;;;;2.40;1.93;;;4.50;99.90;;;;;;5157545;27;20422;-65
2021/03/13 01:24:20;;;;;;;3.50;1.70;;;4.50;99.90;;;;;;5157587;27;20651;-67
2021/03/13 01:26:45;;;;;;;4.43;1.83;;;4.50;99.90;;;;;;5154070;27;20265;-64
2021/03/13 01:29:11;;;;;;;3.00;1.70;;;4.50;92.00;;;;;;5149649;27;20186;-64
2021/03/13 01:31:37;;;;;;;7.63;2.63;;;4.40;72.20;;;;;;5156917;27;20293;-64
2021/03/13 01:34:03;;;;;;;1.33;0.80;;;4.40;75.20;;;;;;5157991;27;20875;-63
2021/03/13 01:36:28;;;;;;;1.20;1.10;;;4.30;63.90;;;;;;5157982;27;20210;-64
2021/03/13 01:38:54;;;;;;;1.07;0.97;;;4.30;57.80;;;;;;5158140;27;20182;-64
2021/03/13 01:41:20;;;;;;;2.03;1.83;;;4.30;56.30;;;;;;5146262;27;20253;-63
2021/03/13 01:43:45;;;;;;;1.80;1.00;;;4.30;48.50;;;;;;5155312;27;20273;-64
2021/03/13 01:46:11;;;;;;;1.90;1.40;;;4.30;40.80;;;;;;5157456;27;20607;-64
2021/03/13 01:48:42;;;;;;;5.63;1.20;;;4.30;35.50;;;;;;5157770;27;20177;-65
2021/03/13 01:51:08;;;;;;;2.47;0.98;;;4.30;36.40;;;;;;5157193;27;20178;-71
2021/03/13 01:53:35;;;;;;;4.10;1.42;;;4.30;39.00;;;;;;5158086;27;20178;-64
2021/03/13 01:56:01;;;;;;;3.00;1.30;;;4.20;41.90;;;;;;5162095;27;20501;-71
2021/03/13 01:58:27;;;;;;;1.30;1.17;;;4.20;47.00;;;;;;5161699;27;20181;-65
2021/03/13 02:00:52;;;;;;;1.40;1.30;;;4.20;48.70;;;;;;5160540;27;20235;-64
2021/03/13 02:03:18;;;;;;;1.43;1.33;;;4.20;55.40;;;;;;5161211;27;20618;-66
2021/03/13 02:05:46;;;;;;;1.60;1.50;;;4.20;60.80;;;;;;5149730;27;20199;-63
2021/03/13 02:08:22;;;;;;;2.22;1.23;;;4.10;69.40;;;;;;5147928;27;20703;-60
2021/03/13 02:11:15;;;;;;;2.20;1.42;;;4.10;84.80;;;;;;5141097;27;20186;-61
2021/03/13 02:14:02;;;;;;;5.38;1.60;;;4.10;90.70;;;;;;5140247;27;20193;-61
2021/03/13 02:16:48;;;;;;;2.50;1.75;;;4.10;97.20;;;;;;5140678;27;20239;-67
2021/03/13 02:19:38;;;;;;;4.13;2.15;;;4.10;99.90;;;;;;5140948;27;20274;-60
2021/03/13 02:22:06;;;;;;;2.45;2.00;;;4.00;99.90;;;;;;5140489;27;20173;-65
2021/03/13 02:25:03;;;;;;;3.33;2.58;;;4.10;99.90;;;;;;5140270;27;20254;-66
2021/03/13 02:27:42;;;;;;;4.85;3.58;;;4.10;99.90;;;;;;5140256;27;20681;-65
2021/03/13 02:30:12;;;;;;;7.57;3.00;;;4.10;99.90;;;;;;5140418;27;20591;-66
2021/03/13 02:32:54;;;;;;;3.40;2.45;;;4.10;99.90;;;;;;5140062;27;20549;-66
2021/03/13 02:35:33;;;;;;;3.90;2.85;;;4.20;99.90;;;;;;5140099;27;20183;-61
2021/03/13 02:38:09;;;;;;;7.28;3.22;;;4.20;99.90;;;;;;5140387;27;20166;-63
2021/03/13 02:40:37;;;;;;;7.85;3.85;;;4.20;99.90;;;;;;5140442;27;20632;-60
2021/03/13 02:43:09;;;;;;;4.30;2.97;;;4.20;99.90;;;;;;5148804;27;20179;-60
2021/03/13 02:45:38;;;;;;;5.70;2.95;;;4.10;99.90;;;;;;5157392;27;20249;-61
2021/03/13 02:48:09;;;;;;;5.93;3.60;;;4.10;99.90;;;;;;5160732;27;20269;-64
2021/03/13 02:50:37;;;;;;;3.25;2.50;;;4.10;99.90;;;;;;5160674;27;20181;-63
2021/03/13 02:53:04;;;;;;;4.53;3.30;;;4.10;99.90;;;;;;5160739;27;20237;-60
2021/03/13 02:55:31;;;;;;;4.45;3.08;;;4.20;99.90;;;;;;5159472;27;20194;-65
2021/03/13 02:57:59;;;;;;;9.88;3.40;;;4.20;99.90;;;;;;5160705;27;20185;-62
2021/03/13 03:00:28;;;;;;;3.33;3.03;;;4.20;99.90;;;;;;5158805;27;20178;-61
2021/03/13 03:02:59;;;;;;;5.25;3.40;;;4.10;99.90;;;;;;5159385;27;20174;-64
2021/03/13 03:05:29;;;;;;;8.75;4.15;;;4.10;99.90;;;;;;5157613;27;20197;-63
2021/03/13 03:08:03;;;;;;;4.55;3.30;;;4.10;99.90;;;;;;5159974;27;20173;-64
2021/03/13 03:10:32;;;;;;;6.50;3.67;;;4.10;99.90;;;;;;5160551;27;20511;-63
2021/03/13 03:13:00;;;;;;;3.50;3.17;;;4.10;99.90;;;;;;5160487;27;20292;-61
2021/03/13 03:15:30;;;;;;;4.70;3.50;;;4.00;99.90;;;;;;5159835;27;20233;-64
2021/03/13 03:17:59;;;;;;;8.15;3.25;;;4.00;99.90;;;;;;5159919;27;20585;-65
2021/03/13 03:20:26;;;;;;;5.80;3.13;;;4.00;99.90;;;;;;5159981;27;20183;-62
2021/03/13 03:22:54;;;;;;;6.55;3.38;;;4.00;99.90;;;;;;5159637;27;20202;-63
2021/03/13 03:25:20;;;;;;;4.15;2.90;;;4.10;99.90;;;;;;5159940;27;20178;-64
2021/03/13 03:27:51;;;;;;;8.97;4.27;;;4.00;99.90;;;;;;5159734;27;20182;-63
2021/03/13 03:30:31;;;;;;;5.80;3.30;;;3.90;99.90;;;;;;5159804;27;20225;-60
2021/03/13 03:33:01;;;;;;;6.65;4.00;;;4.00;99.90;;;;;;5159399;27;20633;-65
2021/03/13 03:35:27;;;;;;;13.65;3.88;;;4.00;99.90;;;;;;5158720;27;20667;-65
2021/03/13 03:37:54;;;;;;;13.35;4.68;;;4.10;99.90;;;;;;5159808;27;20255;-63
2021/03/13 03:40:21;;;;;;;8.75;3.88;;;4.10;99.90;;;;;;5159755;27;20194;-60
2021/03/13 03:42:52;;;;;;;6.93;4.30;;;4.10;99.90;;;;;;5159880;27;20200;-61
2021/03/13 03:45:21;;;;;;;9.85;4.53;;;4.00;99.90;;;;;;5159801;27;20174;-62
2021/03/13 03:47:49;;;;;;;4.93;3.60;;;4.00;99.90;;;;;;5159904;27;20205;-61
2021/03/13 03:50:17;;;;;;;7.75;4.65;;;4.00;99.90;;;;;;5159755;27;20174;-60
2021/03/13 03:52:48;;;;;;;4.97;3.72;;;4.00;99.90;;;;;;5159677;27;20236;-63
2021/03/13 03:55:16;;;;;;;9.82;4.95;;;4.00;99.90;;;;;;5159545;27;20174;-63
2021/03/13 03:57:43;;;;;;;10.35;4.90;;;4.10;99.90;;;;;;5159495;27;20189;-65
2021/03/13 04:00:10;;;;;;;6.35;4.68;;;4.10;99.90;;;;;;5159954;27;20261;-60
2021/03/13 04:02:38;;;;;;;8.45;5.43;;;4.10;99.90;;;;;;5159613;27;20431;-63
2021/03/13 04:05:06;;;;;;;9.38;5.30;;;4.10;99.90;;;;;;5159220;27;20242;-61
2021/03/13 04:07:34;;;;;;;8.52;4.43;;;4.10;99.90;;;;;;5159461;27;20174;-61
2021/03/13 04:10:03;;;;;;;9.00;5.10;;;4.10;99.90;;;;;;5159263;27;20178;-60
2021/03/13 04:12:30;;;;;;;10.90;5.47;;;4.10;99.90;;;;;;5159123;27;20197;-60
2021/03/13 04:14:56;;;;;;;13.32;5.75;;;4.20;99.90;;;;;;5159071;27;20197;-59
2021/03/13 04:17:22;;;;;;;8.60;5.38;;;4.10;99.90;;;;;;5159448;27;20245;-64
2021/03/13 04:19:48;;;;;;;9.37;6.00;;;4.10;99.90;;;;;;5159179;27;20168;-60
2021/03/13 04:22:14;;;;;;;6.73;5.50;;;4.10;99.90;;;;;;5159140;27;20182;-60
2021/03/13 04:24:40;;;;;;;8.83;5.10;;;4.10;99.90;;;;;;5159017;27;20518;-64
2021/03/13 04:27:07;;;;;;;10.90;6.07;;;4.10;99.90;;;;;;5159180;27;20177;-61
2021/03/13 04:29:32;;;;;;;9.48;6.75;;;4.00;99.90;;;;;;5158844;27;20261;-59
2021/03/13 04:32:00;;;;;;;10.63;5.40;;;4.10;99.90;;;;;;5158196;27;20261;-58
2021/03/13 04:34:26;;;;;;;8.60;5.85;;;4.00;99.90;;;;;;5158774;27;20175;-59
2021/03/13 04:36:53;;;;;;;10.02;7.32;;;4.00;99.90;;;;;;5157848;27;20178;-63
2021/03/13 04:39:19;;;;;;;11.50;7.50;;;4.00;99.90;;;;;;5158375;27;20201;-58
2021/03/13 04:41:45;;;;;;;11.52;6.50;;;4.10;99.90;;;;;;5158596;27;20651;-62
2021/03/13 04:44:11;;;;;;;10.80;7.28;;;4.10;99.90;;;;;;5156883;27;20238;-63
2021/03/13 04:46:38;;;;;;;14.35;7.35;;;4.10;99.90;;;;;;5158728;27;20186;-63
2021/03/13 04:49:05;;;;;;;13.55;8.35;;;4.10;99.90;;;;;;5158055;27;20767;-61
2021/03/13 04:51:31;;;;;;;13.00;7.53;;;4.20;99.90;;;;;;5158558;27;20723;-65
2021/03/13 04:53:57;;;;;;;11.80;8.40;;;4.10;99.90;;;;;;5157171;27;20217;-62
2021/03/13 04:56:22;;;;;;;10.00;8.03;;;4.20;99.90;;;;;;5156972;27;20431;-62
2021/03/13 04:58:48;;;;;;;15.00;8.87;;;4.20;99.90;;;;;;5157495;27;20602;-61
2021/03/13 05:01:14;;;;;;;12.23;8.37;;;4.30;99.90;;;;;;5158406;27;20166;-61
2021/03/13 05:03:39;;;;;;;14.37;8.30;;;4.30;99.90;;;;;;5157860;27;20190;-61
2021/03/13 05:06:05;;;;;;;12.93;7.83;;;4.30;99.90;;;;;;5158441;27;20231;-67
2021/03/13 05:08:31;;;;;;;15.30;8.77;;;4.30;99.90;;;;;;5157741;27;20186;-60
2021/03/13 05:10:56;;;;;;;14.27;9.80;;;4.40;99.90;;;;;;5157458;27;20899;-65
2021/03/13 05:13:22;;;;;;;12.83;8.93;;;4.50;99.90;;;;;;5157393;27;20205;-62
2021/03/13 05:15:48;;;;;;;13.77;9.83;;;4.50;99.90;;;;;;5157215;27;20189;-64
2021/03/13 05:18:13;;;;;;;14.03;9.73;;;4.60;99.90;;;;;;5157993;27;20174;-64
2021/03/13 05:20:39;;;;;;;12.47;9.13;;;4.60;99.90;;;;;;5157816;27;20263;-65
2021/03/13 05:23:04;;;;;;;15.73;10.30;;;4.60;99.90;;;;;;5156399;27;20577;-65
2021/03/13 05:25:30;;;;;;;16.83;10.50;;;4.60;99.90;;;;;;5156701;27;20174;-67
2021/03/13 05:27:55;;;;;;;18.00;9.20;;;4.70;99.90;;;;;;5158018;27;20205;-64
2021/03/13 05:30:21;;;;;;;17.43;10.00;;;4.70;99.90;;;;;;5164143;27;20222;-65
2021/03/13 05:32:47;;;;;;;20.33;10.13;;;4.70;99.90;;;;;;5163960;27;20250;-64
2021/03/13 05:35:13;;;;;;;15.03;8.93;;;4.80;99.90;;;;;;5163899;27;20421;-65
2021/03/13 05:37:39;;;;;;;16.08;9.95;;;4.90;99.90;;;;;;5163926;27;20630;-64
2021/03/13 05:40:07;;;;;;;21.42;9.02;;;4.80;99.90;;;;;;5162396;27;20178;-64
2021/03/13 05:42:36;;;;;;;17.48;9.23;;;4.90;99.90;;;;;;5163282;27;20230;-69
2021/03/13 05:45:03;;;;;;;18.30;12.10;;;5.00;99.90;;;;;;5163933;27;20177;-63
2021/03/13 05:47:30;;;;;;;14.93;10.00;;;5.00;99.90;;;;;;5163675;27;20180;-64
2021/03/13 05:50:15;;;;;;;21.33;9.82;;;5.00;99.90;;;;;;5163692;27;20231;-63
2021/03/13 05:52:45;;;;;;;17.80;9.70;;;5.10;99.90;;;;;;5163622;27;20230;-63
2021/03/13 05:55:11;;;;;;;15.50;9.45;;;5.10;99.90;;;;;;5163549;27;20222;-63
2021/03/13 05:57:37;;;;;;;15.20;8.32;;;5.10;99.90;;;;;;5164175;27;20173;-63
2021/03/13 06:00:05;;;;;;;13.05;8.27;;;5.00;99.90;;;;;;5164410;27;20702;-64
2021/03/13 06:02:31;;;;;;;18.63;10.38;;;5.10;99.90;;;;;;5164118;27;20632;-64
2021/03/13 06:04:56;;;;;;;16.37;8.77;;;5.20;99.90;;;;;;5163623;27;20283;-64
2021/03/13 06:07:23;;;;;;;21.00;10.10;;;5.20;99.90;;;;;;5164009;27;20429;-66
2021/03/13 06:09:56;;;;;;;19.02;9.25;;;5.40;99.90;;;;;;5163812;27;20537;-65
2021/03/13 06:12:23;;;;;;;14.00;7.95;;;5.40;99.90;;;;;;5163879;27;20597;-65
2021/03/13 06:14:50;;;;;;;17.80;7.95;;;5.50;99.90;;;;;;5164194;27;20174;-60
2021/03/13 06:17:16;;;;;;;15.55;8.45;;;5.40;99.90;;;;;;5164316;27;20212;-59
2021/03/13 06:19:56;;;;;;;14.10;8.40;;;5.50;99.90;;;;;;5163256;27;20209;-59
2021/03/13 06:22:41;;;;;;;12.52;8.02;;;5.50;99.90;;;;;;5164215;27;20446;-59
2021/03/13 06:25:19;;;;;;;16.23;8.73;;;5.60;99.90;;;;;;5163428;27;20175;-60
2021/03/13 06:28:06;;;;;;;14.10;8.20;;;5.60;99.90;;;;;;5164208;27;20228;-59
2021/03/13 06:30:38;;;;;;;17.35;8.73;;;5.50;99.90;;;;;;5163579;27;20634;-59
2021/03/13 06:33:25;;;;;;;24.60;7.50;;;5.60;99.90;;;;;;5163728;27;20206;-59
2021/03/13 06:35:53;;;;;;;14.55;7.32;;;5.60;99.90;;;;;;5150261;27;20462;-59
2021/03/13 06:38:23;;;;;;;16.42;7.53;;;5.60;99.90;;;;;;5163550;27;20238;-60
2021/03/13 06:40:50;;;;;;;8.68;6.05;;;5.50;99.90;;;;;;5160763;27;20679;-60
2021/03/13 06:43:29;;;;;;;14.93;7.03;;;5.50;99.90;;;;;;5160567;27;20635;-60
2021/03/13 06:46:12;;;;;;;11.35;6.53;;;5.50;99.90;;;;;;5161247;27;20267;-59
2021/03/13 06:48:38;;;;;;;8.63;6.65;;;5.50;99.90;;;;;;5161458;27;20243;-59
2021/03/13 06:51:22;;;;;;;13.52;6.93;;;5.50;99.90;;;;;;5161337;27;20276;-59
2021/03/13 06:54:05;;;;;;;16.08;7.18;;;5.50;99.90;;;;;;5160701;27;20211;-59
2021/03/13 06:56:51;;;;;;;12.43;6.25;;;5.50;99.90;;;;;;5160352;27;20179;-59
2021/03/13 06:59:39;;;;;;;12.20;6.00;;;5.50;99.90;;;;;;5145851;27;20219;-58
2021/03/13 07:02:06;;;;;;;6.93;4.78;;;5.60;99.90;;;;;;5160358;27;20260;-58
2021/03/13 07:04:32;;;;;;;8.98;5.60;;;5.60;99.90;;;;;;5160242;27;20174;-59
2021/03/13 07:06:58;;;;;;;7.18;5.60;;;5.50;99.90;;;;;;5141405;27;20612;-59
2021/03/13 07:09:53;;;;;;;5.75;4.20;;;5.50;99.90;;;;;;5136314;27;20194;-59
2021/03/13 07:12:33;;;;;;;8.10;5.25;;;5.60;99.90;;;;;;5128871;27;20214;-60
2021/03/13 07:15:13;;;;;;;9.70;4.45;;;5.60;99.90;;;;;;5128225;27;20264;-59
2021/03/13 07:17:48;;;;;;;7.70;4.93;;;5.50;99.90;;;;;;5137616;27;20197;-58
2021/03/13 07:20:15;;;;;;;5.65;4.05;;;5.60;99.90;;;;;;5128971;27;20175;-58
2021/03/13 07:22:41;;;;;;;8.30;4.20;;;5.60;99.90;;;;;;5129903;27;20259;-63
2021/03/13 07:25:09;;;;;;;5.85;4.53;;;5.60;99.90;;;;;;5139193;27;20230;-62
2021/03/13 07:27:40;;;;;;;7.30;4.35;;;5.60;99.90;;;;;;5139339;27;20495;-59
2021/03/13 07:30:12;;;;;;;7.22;4.57;;;5.60;99.90;;;;;;5139102;27;20322;-58
2021/03/13 07:32:42;;;;;;;6.18;4.75;;;5.50;99.90;;;;;;5139363;27;20231;-63
2021/03/13 07:35:10;;;;;;;6.70;4.53;;;5.60;99.90;;;;;;5138772;27;20204;-60
2021/03/13 07:37:40;;;;;;;4.30;3.85;;;5.60;99.90;;;;;;5138657;27;20488;-63
2021/03/13 07:40:15;;;;;;;5.22;3.88;;;5.50;99.90;;;;;;5133654;27;20178;-69
2021/03/13 07:42:42;;;;;;;4.25;3.10;;;5.60;99.90;;;;;;5133977;27;20611;-64
2021/03/13 07:45:12;;;;;;;4.65;3.90;;;5.50;99.90;;;;;;5130875;27;20205;-65
2021/03/13 07:47:39;;;;;;;4.82;3.50;;;5.50;99.90;;;;;;5137825;27;20859;-64
2021/03/13 07:50:08;;;;;;;2.90;2.60;;;5.50;99.90;;;;;;5127405;27;20609;-65
2021/03/13 07:52:35;;;;;;;4.35;2.55;;;5.50;99.90;;;;;;5134099;27;20301;-65
2021/03/13 07:55:14;;;;;;;3.50;2.85;;;5.50;99.90;;;;;;5134071;27;20260;-60
2021/03/13 07:57:44;;;;;;;4.03;2.10;;;5.60;99.90;;;;;;5131922;27;20191;-58
2021/03/13 08:00:11;;;;;;;4.88;2.55;;;5.60;99.90;;;;;;5130771;27;20231;-59
2021/03/13 08:02:39;;;;;;;5.13;2.22;;;5.60;99.90;;;;;;5129434;27;20279;-64
2021/03/13 08:05:18;;;;;;;3.00;2.45;;;5.50;99.90;;;;;;5129597;27;20198;-64
2021/03/13 08:08:03;;;;;;;3.85;1.85;;;5.60;99.90;;;;;;5138173;27;20222;-59
2021/03/13 08:10:50;;;;;;;2.40;1.83;;;5.70;99.90;;;;;;5137954;27;20182;-59
2021/03/13 08:13:28;;;;;;;3.67;1.58;;;5.60;99.90;;;;;;5132262;27;20247;-59
2021/03/13 08:16:04;;;;;;;2.40;1.98;;;5.60;99.90;;;;;;5136672;27;20179;-59
2021/03/13 08:18:44;;;;;;;3.28;2.35;;;5.60;99.90;;;;;;5137740;27;20190;-59
2021/03/13 08:21:21;;;;;;;4.95;2.05;;;5.60;99.90;;;;;;5136242;27;20249;-59
2021/03/13 08:23:48;;;;;;;3.10;1.83;;;5.60;99.90;;;;;;5135349;27;20186;-59
2021/03/13 08:26:14;;;;;;;3.67;1.60;;;5.60;99.90;;;;;;5136486;27;20235;-59
2021/03/13 08:28:49;;;;;;;3.33;1.67;;;5.50;99.90;;;;;;5126038;27;20200;-58
2021/03/13 08:31:32;;;;;;;4.05;1.55;;;5.70;99.90;;;;;;5134359;27;20198;-59
2021/03/13 08:34:20;;;;;;;2.33;1.60;;;5.60;99.90;;;;;;5135042;27;20622;-58
2021/03/13 08:36:50;;;;;;;1.40;1.10;;;5.70;99.90;;;;;;5131434;27;20188;-58
2021/03/13 08:39:21;;;;;;;2.05;1.63;;;5.70;99.90;;;;;;5137032;27;20183;-58
2021/03/13 08:41:52;;;;;;;3.08;1.65;;;5.70;99.90;;;;;;5133299;27;20677;-58
2021/03/13 08:44:29;;;;;;;3.95;1.80;;;5.80;99.90;;;;;;5136214;27;20182;-59
2021/03/13 08:47:03;;;;;;;2.40;1.60;;;5.90;99.90;;;;;;5132609;27;20186;-58
2021/03/13 08:49:29;;;;;;;2.80;1.90;;;5.90;99.90;;;;;;5132458;27;20178;-58
2021/03/13 08:52:07;;;;;;;1.67;1.20;;;6.00;99.90;;;;;;5137324;27;20218;-58
2021/03/13 08:54:39;;;;;;;2.97;1.55;;;5.90;99.90;;;;;;5133508;27;20198;-61
2021/03/13 08:57:06;;;;;;;1.42;1.27;;;5.90;99.90;;;;;;5126048;27;20184;-62
2021/03/13 08:59:32;;;;;;;2.67;1.50;;;6.00;99.90;;;;;;5132856;27;20192;-62
2021/03/13 09:02:14;;;;;;;2.10;2.00;;;6.10;99.90;;;;;;5129946;27;20573;-62
2021/03/13 09:04:47;;;;;;;1.45;1.25;;;6.20;99.90;;;;;;5132590;27;20264;-61
2021/03/13 09:07:14;;;;;;;1.85;1.45;;;6.10;99.90;;;;;;5130334;27;20191;-60
2021/03/13 09:09:41;;;;;;;0.85;0.85;;;6.20;99.90;;;;;;5134388;27;20183;-64
2021/03/13 09:12:12;;;;;;;2.05;1.58;;;6.20;99.90;;;;;;5132341;27;20266;-62
2021/03/13 09:14:41;;;;;;;1.73;1.40;;;6.30;99.90;;;;;;5135420;27;20681;-63
2021/03/13 09:17:11;;;;;;;5.15;2.78;;;6.40;99.90;;;;;;5135749;27;20199;-65
2021/03/13 09:19:37;;;;;;;2.75;2.28;;;6.50;99.90;;;;;;5134874;27;20231;-65
2021/03/13 09:22:10;;;;;;;4.35;2.00;;;6.60;99.90;;;;;;5133791;27;20186;-66
2021/03/13 09:24:37;;;;;;;1.20;1.10;;;6.70;99.90;;;;;;5132267;27;20179;-63
2021/03/13 09:27:04;;;;;;;1.65;1.42;;;6.70;99.90;;;;;;5135150;27;20225;-61
2021/03/13 09:29:35;;;;;;;1.10;1.00;;;6.80;99.90;;;;;;5135466;27;20197;-62
2021/03/13 09:32:04;;;;;;;1.25;1.15;;;6.90;99.90;;;;;;5126418;27;20216;-61
2021/03/13 09:34:32;;;;;;;1.48;1.38;;;7.10;99.90;;;;;;5130173;28;20917;-63
2021/03/13 09:36:58;;;;;;;2.35;1.88;;;7.10;99.90;;;;;;5133606;27;20186;-63
2021/03/13 09:39:27;;;;;;;1.90;1.73;;;7.10;99.90;;;;;;5135878;28;20185;-61
2021/03/13 09:42:14;;;;;;;10.55;5.82;;;7.00;99.90;;;;;;5135092;27;20179;-62
2021/03/13 09:44:50;;;;;;;2.70;1.60;;;7.10;99.90;;;;;;5134858;28;20189;-63
2021/03/13 09:47:42;;;;;;;0.90;0.60;;;7.00;99.90;;;;;;5136798;28;20176;-62
2021/03/13 09:50:12;;;;;;;1.13;0.50;;;6.80;99.90;;;;;;5135110;28;20194;-63
2021/03/13 09:52:41;;;;;;;1.13;0.70;;;6.90;99.90;;;;;;5132111;27;20252;-61
2021/03/13 09:55:08;;;;;;;1.30;0.50;;;6.90;91.80;;;;;;5132710;28;20184;-60
2021/03/13 09:57:36;;;;;;;1.58;0.80;;;6.80;1.00;;;;;;5134247;28;20612;-63
2021/03/13 10:00:05;;;;;;;3.85;0.80;;;7.00;1.00;;;;;;5133081;28;20180;-64
2021/03/13 10:02:30;;;;;;;0.60;0.60;;;7.00;1.00;;;;;;5133445;27;20189;-63
2021/03/13 10:04:57;;;;;;;1.60;0.90;;;7.30;1.00;;;;;;5124474;28;20196;-66
2021/03/13 10:07:23;;;;;;;1.20;1.10;;;7.50;1.00;;;;;;5117959;28;20181;-64
2021/03/13 10:09:57;;;;;;;1.00;0.90;;;7.60;1.00;;;;;;5115704;28;20190;-64
2021/03/13 10:12:24;;;;;;;4.53;1.20;;;7.60;1.00;;;;;;5148141;27;20201;-65
2021/03/13 10:14:50;;;;;;;3.08;0.80;;;7.50;1.00;;;;;;5131137;27;20743;-62
2021/03/13 10:17:18;;;;;;;2.67;0.87;;;7.70;1.00;;;;;;5133515;27;20180;-61
2021/03/13 10:19:44;;;;;;;2.65;0.77;;;7.60;1.00;;;;;;5135555;27;20270;-64
2021/03/13 10:22:11;;;;;;;1.57;1.13;;;7.70;1.00;;;;;;5138247;27;20221;-63
2021/03/13 10:25:06;;;;;;;2.45;0.90;;;7.70;1.00;;;;;;5136649;27;20438;-65
2021/03/13 10:27:33;;;;;;;1.85;0.95;;;7.80;1.00;;;;;;5132869;27;20612;-68
2021/03/13 10:30:01;;;;;;;2.72;0.80;;;7.60;99.90;;;;;;5138941;27;20641;-66
2021/03/13 10:32:32;;;;;;;4.70;0.93;;;7.60;99.90;;;;;;5137910;27;20213;-63
2021/03/13 10:35:05;;;;;;;1.40;1.10;;;7.70;99.90;;;;;;5138241;27;20207;-62
2021/03/13 10:37:40;;;;;;;2.25;1.30;;;7.70;99.90;;;;;;5138084;27;20212;-68
2021/03/13 10:40:11;;;;;;;1.77;1.40;;;8.00;99.90;;;;;;5132856;27;20270;-63
2021/03/13 10:42:37;;;;;;;1.23;0.70;;;8.00;99.90;;;;;;5135088;27;20193;-64
2021/03/13 10:45:15;;;;;;;1.50;0.77;;;8.20;99.90;;;;;;5132318;27;20253;-65
2021/03/13 10:47:40;;;;;;;4.45;1.27;;;8.20;1.00;;;;;;5135143;27;20446;-67
2021/03/13 10:50:07;;;;;;;2.20;1.17;;;8.40;15.30;;;;;;5137006;27;20188;-68
2021/03/13 10:52:33;;;;;;;6.18;1.77;;;8.60;1.00;;;;;;5137274;27;20459;-67
2021/03/13 10:54:59;;;;;;;2.85;1.38;;;8.60;1.00;;;;;;5137385;27;20170;-67
2021/03/13 10:57:24;;;;;;;2.20;1.43;;;8.70;99.90;;;;;;5137419;27;20564;-66
2021/03/13 10:59:50;;;;;;;4.67;1.10;;;8.70;1.00;;;;;;5137459;27;20628;-67
2021/03/13 11:02:15;;;;;;;4.00;1.40;;;8.70;99.90;;;;;;5137885;27;20180;-65
2021/03/13 11:04:41;;;;;;;3.97;1.47;;;9.00;1.00;;;;;;5137020;27;20209;-64
2021/03/13 11:07:07;;;;;;;2.10;1.43;;;9.30;99.90;;;;;;5134686;27;20196;-67
2021/03/13 11:09:33;;;;;;;2.05;1.73;;;9.50;1.00;;;;;;5128845;27;20190;-64
2021/03/13 11:11:59;;;;;;;1.52;0.65;;;9.50;99.90;;;;;;5134663;27;20640;-62
2021/03/13 11:14:25;;;;;;;3.27;1.07;;;9.50;99.90;;;;;;5145712;27;20179;-62
2021/03/13 11:16:52;;;;;;;2.07;1.40;;;9.40;99.90;;;;;;5156814;27;20185;-64
2021/03/13 11:19:17;;;;;;;4.97;1.40;;;9.60;1.00;;;;;;5157982;27;20460;-64
2021/03/13 11:21:43;;;;;;;1.50;1.13;;;9.60;99.90;;;;;;5147533;27;20614;-63
2021/03/13 11:24:10;;;;;;;5.13;1.40;;;9.80;1.00;;;;;;5142671;27;20451;-60
2021/03/13 11:26:36;;;;;;;1.42;0.70;;;9.80;99.90;;;;;;5116281;27;20494;-64
2021/03/13 11:29:02;;;;;;;3.07;1.23;;;10.00;1.00;;;;;;5116544;28;20642;-62
2021/03/13 11:31:27;;;;;;;7.30;2.47;;;10.30;99.90;;;;;;5116291;28;20425;-59
2021/03/13 11:33:53;;;;;;;3.63;1.70;;;10.20;1.00;;;;;;5115011;28;20765;-60
2021/03/13 11:36:19;;;;;;;3.50;1.57;;;10.50;1.00;;;;;;5115261;28;20182;-62
2021/03/13 11:38:45;;;;;;;8.13;2.47;;;10.70;1.00;;;;;;5144589;27;20276;-65
2021/03/13 11:41:10;;;;;;;5.50;1.48;;;10.90;59.30;;;;;;5137857;27;20189;-65
2021/03/13 11:43:39;;;;;;;5.47;1.83;;;10.80;99.90;;;;;;5135367;27;20269;-64
2021/03/13 11:46:12;;;;;;;2.95;1.23;;;10.80;1.00;;;;;;5136747;27;20178;-65
2021/03/13 11:48:38;;;;;;;3.25;1.15;;;10.90;99.90;;;;;;5136489;27;20179;-63
2021/03/13 11:51:04;;;;;;;1.50;0.93;;;11.00;1.00;;;;;;5136539;27;20234;-62
2021/03/13 11:53:30;;;;;;;3.37;1.73;;;10.90;1.00;;;;;;5135998;27;20317;-64
2021/03/13 11:55:56;;;;;;;2.10;0.90;;;11.00;1.00;;;;;;5134991;27;20526;-62
2021/03/13 11:58:21;;;;;;;6.27;1.20;;;10.80;1.00;;;;;;5136227;27;20187;-63
2021/03/13 12:00:47;;;;;;;5.80;1.53;;;10.60;1.00;;;;;;5136122;27;20182;-59
2021/03/13 12:03:12;;;;;;;4.70;2.17;;;10.60;1.00;;;;;;5135832;27;20760;-60
2021/03/13 12:05:38;;;;;;;3.13;1.50;;;10.60;1.00;;;;;;5135698;27;20213;-67
2021/03/13 12:08:04;;;;;;;5.57;1.37;;;10.70;1.00;;;;;;5127200;27;20622;-65
2021/03/13 12:10:29;;;;;;;3.93;1.90;;;10.30;1.00;;;;;;5133305;27;20187;-63
2021/03/13 12:12:56;;;;;;;2.80;1.33;;;10.20;1.00;;;;;;5131078;27;20832;-60
2021/03/13 12:15:22;;;;;;;6.38;1.95;;;9.90;1.00;;;;;;5129526;27;20209;-62
2021/03/13 12:17:49;;;;;;;3.60;1.83;;;9.60;99.90;;;;;;5131885;27;20188;-64
2021/03/13 12:20:15;;;;;;;2.20;1.10;;;9.50;99.90;;;;;;5127737;27;20173;-66
2021/03/13 12:22:41;;;;;;;1.35;0.80;;;9.30;99.90;;;;;;5137054;27;20213;-64
2021/03/13 12:25:08;;;;;;;1.53;0.73;;;9.00;99.90;;;;;;5132415;27;20657;-63
2021/03/13 12:27:39;;;;;;;2.42;0.82;;;8.60;13.00;;;;;;5135280;27;20182;-65
2021/03/13 12:30:09;;;;;;;2.60;1.10;;;8.20;1.00;;;;;;5140824;27;20230;-64
2021/03/13 12:32:35;;;;;;;4.40;1.75;;;8.40;1.00;;;;;;5138288;27;20219;-63
2021/03/13 12:35:06;;;;;;;3.28;1.27;;;8.50;99.90;;;;;;5135121;27;20177;-65
2021/03/13 12:37:32;;;;;;;1.55;1.05;;;8.70;1.00;;;;;;5130162;27;20190;-63
2021/03/13 12:39:58;;;;;;;1.70;0.75;;;9.00;99.90;;;;;;5127157;27;20201;-62
2021/03/13 12:42:24;;;;;;;3.42;1.25;;;8.80;1.00;;;;;;5134821;27;20212;-61
2021/03/13 12:44:50;;;;;;;1.03;0.60;;;8.80;99.90;;;;;;5134700;27;20625;-66
2021/03/13 12:47:16;;;;;;;4.22;1.00;;;8.80;1.00;;;;;;5133811;27;20423;-63
2021/03/13 12:49:42;;;;;;;3.60;1.07;;;8.80;1.00;;;;;;5133662;27;20193;-65
2021/03/13 12:52:08;;;;;;;2.50;0.77;;;8.90;1.00;;;;;;5134865;27;20467;-65
2021/03/13 12:54:33;;;;;;;1.93;0.80;;;9.00;99.90;;;;;;5131287;27;20212;-66
2021/03/13 12:56:59;;;;;;;4.67;0.90;;;9.20;1.00;;;;;;5133673;27;20186;-64
2021/03/13 12:59:24;;;;;;;2.90;1.10;;;9.00;99.90;;;;;;5130269;27;20189;-64
2021/03/13 13:01:50;;;;;;;7.57;2.97;;;8.80;1.00;;;;;;5133841;27;20176;-66
2021/03/13 13:04:16;;;;;;;6.73;0.97;;;8.50;1.00;;;;;;5132333;27;20618;-66
2021/03/13 13:06:44;;;;;;;2.50;1.03;;;8.50;99.90;;;;;;5134531;27;20665;-69